VVTSVVCI

Guest
Details From VVTS - TAN SON NHAT INTL
To VVCI - HAIPHONG CATBI
Flight Number -
Tags generated
Created
Modified
Stats Distance 656 nm / 1,216 km
Max Altitude 35,000 ft / 10,668 m
Waypoints 10
Social Downloads 3
Likes 0
Share VATSIM

Download

Looking for another format? Having issues loading an existing format? Contact us
Advertisement - Login to hide

Notes

Basic altitude profile: - Ascent Rate: 2500ft/min - Ascent Speed: 250kts - Cruise Altitude: 35000ft - Cruise Speed: 420kts - Descent Rate: 1500ft/min - Descent Speed: 250kts Options: - Use NATs: yes - Use PACOTS: yes - Use low airways: yes - Use high airways: yes

Route

VVTS AC W1 MAREL VVCI

ID Type Via Altitude Latitude Longitude Leg Dist Tot Dist Heading (true) Name
O VVTS APT - 0 ft / 0 m 10.81875˚ 106.65173˚ - 0 nm - TAN SON NHAT INTL
AC NDB - 11,500 ft / 3,505 m 10.93917˚ 107.18833˚ 32 nm 32 nm 77° / 77° ANLOC NDB
BU NDB W1 (AWY-LO) 35,000 ft / 10,668 m 12.67028˚ 108.04222˚ 115 nm 147 nm 26° / 26° BUON MA THUOT NDB
PK NDB W1 (AWY-HI) 34,000 ft / 10,363 m 14.00667˚ 108.00889˚ 80 nm 228 nm 359° / 359° PLEIKU NDB
DAN VOR W1 (AWY-HI) 35,000 ft / 10,668 m 16.05276˚ 108.19823˚ 123 nm 351 nm 5° / 5° DANANG VOR-DME
HAMIN FIX W1 (AWY-HI) 34,000 ft / 10,363 m 17.12972˚ 107.67778˚ 71 nm 422 nm 335° / 335° -
XONUS FIX W1 (AWY-HI) 34,000 ft / 10,363 m 18.07000˚ 107.23306˚ 61 nm 484 nm 336° / 336° -
HATIN FIX W1 (AWY-HI) 30,100 ft / 9,174 m 18.46694˚ 107.04889˚ 26 nm 510 nm 336° / 336° -
MAREL FIX W1 (AWY-HI) 20,400 ft / 6,218 m 19.22806˚ 106.69361˚ 49 nm 560 nm 336° / 336° -
O VVCI APT - 0 ft / 0 m 20.81939˚ 106.72499˚ 95 nm 656 nm 1° / 1° HAIPHONG CATBI

Altitude Profile

Advertisement - Login to hide

Weather


0- 5 10 15 20 25 30 35+ Temperature / ° C

Clouds and Precipitation
Forecast for 2017-12-17 18:00 UTC. Updated an hour ago

Ground ~20,000 ft ~40,000 ft Winds

VVTS

Details ICAO VVTS (SGN)
Name TAN SON NHAT INTL
Region Vietnam
Timezone Asia/Ho_Chi_Minh (UTC+7.0)
Stats Elevation 33 ft / 10 m (AMSL)
Location 10.818750° 106.651735°
Runways 2
Magnetic Variation 0.488° W

METAR

VVTS 171400Z 03009KT 9999 FEW017 25/17 Q1014 NOSIG

Decode

TAF

TAF VVTS 171100Z 1712/1818 04009KT 9999 SCT017

Decode

Departure Runways

ID Width Length Bearing (true) Bearing (mag) Surface Threshold Offset Overrun Length
07L 148 ft / 45 m 9,998 ft / 3,047 m 69.00° 69.49° Asphalt 0 ft / 0 m 1,040 ft / 317 m
07R 148 ft / 45 m 12,617 ft / 3,846 m 68.90° 69.39° Concrete 2,543 ft / 775 m 863 ft / 263 m
25L 148 ft / 45 m 12,617 ft / 3,846 m 248.90° 249.39° Concrete 0 ft / 0 m 1,027 ft / 313 m
25R 148 ft / 45 m 9,998 ft / 3,047 m 249.00° 249.49° Asphalt 0 ft / 0 m 1,053 ft / 321 m

VVCI

Details ICAO VVCI (HPH)
Name HAIPHONG CATBI
Region Vietnam
Timezone Asia/Ho_Chi_Minh (UTC+7.0)
Stats Elevation 6 ft / 2 m (AMSL)
Location 20.819386° 106.724990°
Runways 1
Magnetic Variation 1.554° W

METAR

VVCI 171400Z 06005KT 8000 NSC 14/07 Q1026 NOSIG

Decode

TAF

TAF VVCI 171100Z 1712/1812 06005KT CAVOK= TAF VVCR 171100Z 1712/1812 04020KT 9999 SCT015

Decode

Destination Runways

ID Width Length Bearing (true) Bearing (mag) Surface Threshold Offset Overrun Length
07 164 ft / 50 m 7,879 ft / 2,402 m 72.18° 73.73° Asphalt 0 ft / 0 m 0 ft / 0 m
25 164 ft / 50 m 7,879 ft / 2,402 m 252.19° 253.74° Asphalt 0 ft / 0 m 0 ft / 0 m

Popular Alternatives